Terminal Aerodrome Forecast
Issued by NWS

Home | Current Version | Previous Version | Graphics & Text | Print | Product List | Glossary On
Versions: 1 2 3 4 5 6 7 8 9 10 11 12
000
FTUS43 KGRB 191700
TAFATW
TAF
KATW 191736Z 1918/2018 20011KT P6SM SCT050 BKN090
     FM200100 18005KT P6SM SCT050 BKN250
     FM201600 21010KT P6SM SCT040 SCT100 BKN200=

USA.gov is the U.S. government's official web portal to all federal, state and local government web resources and services.